Airfield :
LOGIN :

Register | Disclaimer

   EN    FR    IT 

 










Legend :    VFR   Marginal VFR   IFR   Intensive IFR   Very Intensive IFR
Visi :
Ceiling :
>= 8 km
>= 3000ft
5 to 8 km
1000 to 3000 ft
1500m to 5 km
500 to 1000 ft
800 to 1500m
200 to 500 ft
< 800m
< 200 ft
Symbols :   Thunderstorms  Fog  Heavy snow  Heavy precipitations  Wind > 20 kt
SIGMETs :     Misc.  Thunderstorms  Icing  Turbulence  Mountain Waves  Volcanic Ashes






- Airport Elevation : 545 ft
- IATA code : PZY


LZPP - Piešťany

CURRENT METAR :
  • 191630Z 07005KT 030V120 9999 VCTS FEW040CB 21/19 Q1011

EXPIRED METARs :
  • 191600Z VRB03KT 9999 -SHRA VCTS FEW020 SCT040CB 21/19 Q1012 RETS
  • 191530Z 21006KT 170V250 9999 -SHRA VCTS FEW050CB 26/18 Q1012
  • 191500Z VRB02KT CAVOK 26/17 Q1011
  • 191430Z 23015KT CAVOK 25/18 Q1011
  • 191400Z 21019KT CAVOK 30/16 Q1010
  • 191330Z 22010KT CAVOK 33/15 Q1009

TAF TAF LZPP
Valid from the 19 at 15:00 until the 20 at 00:00 UTC


191415Z 1915/2000 20010KT CAVOK
PROB40
TEMPO 1915/2000 16015G25KT 9999 TSRA FEW045CB
BECMG 1920/1921 28006KT



MET'MAP, your aeronautical weather chart ! - Copyright ORBIFLY December 2007 - Disclaimer

ORBIFLY MET'MAP TEAM :

Programming & Development : Alexandra Zaïnal
Original concept : Baudouin d'Aumeries
Technical & hardware support : Manuel Goepfert
Assistance : Marc-Olivier Méhu




SOURCES & CREDITS :

   NOAA